CheckWX is a tool to help pilots better visualize weather data.  It is not intended as a substitute for an official pre-flight weather briefing.

19:16:49 UTC

EDXW METAR
Westerland Sylt Airport
Westerland, Germany
Current

27 mins ago

EDXW 261850Z 23016KT 4400 RA OVC003 12/12 Q1002
Observed
May-26 @ 18:50 UTC
Wind
  • 230° at 16 KTS
Visibility
4,394 meters
Flight Rules
LIFR
Conditions
Rain
Cloud Levels
  • Overcast at 300' AGL
Temperature
12°C / 54°F
Dewpoint
12°C / 54°F
Humidity
100%
Altimeter
29.59" Hg
Pressure
1001.92 hPa
Previous

57 mins ago

EDXW 261820Z 24015KT 2800 DZ OVC002 13/13 Q1003
Observed
May-26 @ 18:20 UTC
Wind
  • 240° at 15 KTS
Visibility
2,800 meters
Flight Rules
LIFR
Conditions
Drizzle
Cloud Levels
  • Overcast at 200' AGL
Temperature
13°C / 55°F
Dewpoint
13°C / 55°F
Humidity
100%
Altimeter
29.62" Hg
Pressure
1002.92 hPa
Previous

1 hour ago

EDXW 261750Z 24016KT 3700 BR OVC002 12/12 Q1003
Observed
May-26 @ 17:50 UTC
Wind
  • 240° at 16 KTS
Visibility
3,701 meters
Flight Rules
LIFR
Conditions
Mist
Cloud Levels
  • Overcast at 200' AGL
Temperature
12°C / 54°F
Dewpoint
12°C / 54°F
Humidity
100%
Altimeter
29.62" Hg
Pressure
1002.92 hPa